sensor_id;sensor_type;location;lat;lon;timestamp;pressure;altitude;pressure_sealevel;temperature;humidity
54854;BME280;40747;49.480;8.658;2022-12-07T00:01:30;100507.91;;;5.21;100.00
54854;BME280;40747;49.480;8.658;2022-12-07T00:03:58;100512.34;;;5.00;100.00
54854;BME280;40747;49.480;8.658;2022-12-07T00:06:30;100515.13;;;4.52;100.00
54854;BME280;40747;49.480;8.658;2022-12-07T00:08:55;100516.94;;;4.21;100.00
54854;BME280;40747;49.480;8.658;2022-12-07T00:11:22;100511.72;;;4.29;100.00
54854;BME280;40747;49.480;8.658;2022-12-07T00:13:54;100517.72;;;4.54;100.00
54854;BME280;40747;49.480;8.658;2022-12-07T00:16:22;100522.03;;;4.73;100.00
54854;BME280;40747;49.480;8.658;2022-12-07T00:18:48;100517.66;;;4.85;100.00
54854;BME280;40747;49.480;8.658;2022-12-07T00:21:17;100501.94;;;4.91;100.00
54854;BME280;40747;49.480;8.658;2022-12-07T00:23:44;100481.06;;;4.92;100.00
54854;BME280;40747;49.480;8.658;2022-12-07T00:26:11;100484.56;;;4.87;100.00
54854;BME280;40747;49.480;8.658;2022-12-07T00:28:37;100489.00;;;4.68;100.00
54854;BME280;40747;49.480;8.658;2022-12-07T00:31:08;100493.38;;;4.66;100.00
54854;BME280;40747;49.480;8.658;2022-12-07T00:33:35;100489.91;;;4.62;100.00
54854;BME280;40747;49.480;8.658;2022-12-07T00:36:03;100472.47;;;4.69;100.00
54854;BME280;40747;49.480;8.658;2022-12-07T00:38:31;100477.63;;;4.78;100.00
54854;BME280;40747;49.480;8.658;2022-12-07T00:41:01;100490.69;;;4.76;100.00
54854;BME280;40747;49.480;8.658;2022-12-07T00:43:27;100484.63;;;4.78;100.00
54854;BME280;40747;49.480;8.658;2022-12-07T00:45:53;100479.44;;;4.68;100.00
54854;BME280;40747;49.480;8.658;2022-12-07T00:48:19;100485.50;;;4.73;100.00
54854;BME280;40747;49.480;8.658;2022-12-07T00:50:44;100475.03;;;4.80;100.00
54854;BME280;40747;49.480;8.658;2022-12-07T00:53:10;100464.63;;;4.70;100.00
54854;BME280;40747;49.480;8.658;2022-12-07T00:55:36;100475.09;;;4.72;100.00
54854;BME280;40747;49.480;8.658;2022-12-07T00:58:02;100486.34;;;4.74;100.00
54854;BME280;40747;49.480;8.658;2022-12-07T01:00:27;100479.44;;;4.64;100.00
54854;BME280;40747;49.480;8.658;2022-12-07T01:02:53;100485.47;;;4.76;100.00
54854;BME280;40747;49.480;8.658;2022-12-07T01:05:18;100487.25;;;4.68;100.00
54854;BME280;40747;49.480;8.658;2022-12-07T01:07:44;100478.56;;;4.69;100.00
54854;BME280;40747;49.480;8.658;2022-12-07T01:10:09;100475.97;;;4.66;100.00
54854;BME280;40747;49.480;8.658;2022-12-07T01:12:35;100480.34;;;4.58;100.00
54854;BME280;40747;49.480;8.658;2022-12-07T01:15:00;100482.06;;;4.57;100.00
54854;BME280;40747;49.480;8.658;2022-12-07T01:17:25;100488.16;;;4.66;100.00
54854;BME280;40747;49.480;8.658;2022-12-07T01:19:51;100495.94;;;4.69;100.00
54854;BME280;40747;49.480;8.658;2022-12-07T01:22:16;100487.25;;;4.71;100.00
54854;BME280;40747;49.480;8.658;2022-12-07T01:24:41;100465.56;;;4.55;100.00
54854;BME280;40747;49.480;8.658;2022-12-07T01:27:06;100481.19;;;4.60;100.00
54854;BME280;40747;49.480;8.658;2022-12-07T01:29:32;100481.22;;;4.51;100.00
54854;BME280;40747;49.480;8.658;2022-12-07T01:31:57;100482.09;;;4.43;100.00
54854;BME280;40747;49.480;8.658;2022-12-07T01:34:22;100484.75;;;4.37;100.00
54854;BME280;40747;49.480;8.658;2022-12-07T01:36:47;100477.81;;;4.19;100.00
54854;BME280;40747;49.480;8.658;2022-12-07T01:39:13;100476.09;;;4.15;100.00
54854;BME280;40747;49.480;8.658;2022-12-07T01:41:40;100459.59;;;4.08;100.00
54854;BME280;40747;49.480;8.658;2022-12-07T01:44:23;100466.53;;;4.26;100.00
54854;BME280;40747;49.480;8.658;2022-12-07T01:46:54;100478.66;;;4.38;100.00
54854;BME280;40747;49.480;8.658;2022-12-07T01:52:16;100475.16;;;4.46;100.00
54854;BME280;40747;49.480;8.658;2022-12-07T01:54:41;100480.38;;;4.47;100.00
54854;BME280;40747;49.480;8.658;2022-12-07T01:57:08;100480.38;;;4.46;100.00
54854;BME280;40747;49.480;8.658;2022-12-07T01:59:34;100482.09;;;4.51;100.00
54854;BME280;40747;49.480;8.658;2022-12-07T02:02:02;100480.34;;;4.59;100.00
54854;BME280;40747;49.480;8.658;2022-12-07T02:04:30;100486.41;;;4.65;100.00
54854;BME280;40747;49.480;8.658;2022-12-07T02:06:55;100483.78;;;4.69;100.00
54854;BME280;40747;49.480;8.658;2022-12-07T02:09:22;100480.28;;;4.69;100.00
54854;BME280;40747;49.480;8.658;2022-12-07T02:11:47;100480.34;;;4.58;100.00
54854;BME280;40747;49.480;8.658;2022-12-07T02:14:13;100462.09;;;4.53;100.00
54854;BME280;40747;49.480;8.658;2022-12-07T02:16:47;100471.63;;;4.59;100.00
54854;BME280;40747;49.480;8.658;2022-12-07T02:19:39;100467.31;;;4.49;100.00
54854;BME280;40747;49.480;8.658;2022-12-07T02:22:20;100453.41;;;4.54;100.00
54854;BME280;40747;49.480;8.658;2022-12-07T02:25:05;100461.25;;;4.53;100.00
54854;BME280;40747;49.480;8.658;2022-12-07T02:27:46;100447.34;;;4.45;100.00
54854;BME280;40747;49.480;8.658;2022-12-07T02:30:20;100440.44;;;4.37;100.00
54854;BME280;40747;49.480;8.658;2022-12-07T02:33:11;100428.28;;;4.22;100.00
54854;BME280;40747;49.480;8.658;2022-12-07T02:35:43;100434.38;;;4.28;100.00
54854;BME280;40747;49.480;8.658;2022-12-07T02:38:17;100442.16;;;4.35;100.00
54854;BME280;40747;49.480;8.658;2022-12-07T02:40:48;100449.97;;;4.38;100.00
54854;BME280;40747;49.480;8.658;2022-12-07T02:43:19;100448.25;;;4.37;100.00
54854;BME280;40747;49.480;8.658;2022-12-07T02:45:47;100464.75;;;4.35;100.00
54854;BME280;40747;49.480;8.658;2022-12-07T02:48:16;100459.53;;;4.42;100.00
54854;BME280;40747;49.480;8.658;2022-12-07T02:50:48;100468.19;;;4.49;100.00
54854;BME280;40747;49.480;8.658;2022-12-07T02:53:39;100462.97;;;4.55;100.00
54854;BME280;40747;49.480;8.658;2022-12-07T02:56:45;100457.72;;;4.57;100.00
54854;BME280;40747;49.480;8.658;2022-12-07T02:59:34;100462.94;;;4.57;100.00
54854;BME280;40747;49.480;8.658;2022-12-07T03:02:25;100460.31;;;4.62;100.00
54854;BME280;40747;49.480;8.658;2022-12-07T03:05:09;100459.44;;;4.61;100.00
54854;BME280;40747;49.480;8.658;2022-12-07T03:13:46;100442.91;;;4.59;100.00
54854;BME280;40747;49.480;8.658;2022-12-07T03:18:49;100437.84;;;4.20;100.00
54854;BME280;40747;49.480;8.658;2022-12-07T03:21:20;100436.16;;;4.01;100.00
54854;BME280;40747;49.480;8.658;2022-12-07T03:23:50;100436.13;;;4.12;100.00
54854;BME280;40747;49.480;8.658;2022-12-07T03:26:17;100426.59;;;4.01;100.00
54854;BME280;40747;49.480;8.658;2022-12-07T03:28:49;100432.63;;;4.14;100.00
54854;BME280;40747;49.480;8.658;2022-12-07T03:31:23;100432.63;;;4.26;100.00
54854;BME280;40747;49.480;8.658;2022-12-07T03:34:00;100431.72;;;4.35;100.00
54854;BME280;40747;49.480;8.658;2022-12-07T03:36:35;100428.25;;;4.32;100.00
54854;BME280;40747;49.480;8.658;2022-12-07T03:41:38;100422.19;;;4.26;100.00
54854;BME280;40747;49.480;8.658;2022-12-07T03:44:04;100396.13;;;4.20;100.00
54854;BME280;40747;49.480;8.658;2022-12-07T03:49:27;100417.81;;;4.27;100.00
54854;BME280;40747;49.480;8.658;2022-12-07T03:52:20;100422.19;;;4.33;100.00
54854;BME280;40747;49.480;8.658;2022-12-07T03:55:05;100417.88;;;4.22;100.00
54854;BME280;40747;49.480;8.658;2022-12-07T03:57:34;100416.13;;;4.23;100.00
54854;BME280;40747;49.480;8.658;2022-12-07T04:00:00;100411.78;;;4.19;100.00
54854;BME280;40747;49.480;8.658;2022-12-07T04:02:27;100416.16;;;4.06;100.00
54854;BME280;40747;49.480;8.658;2022-12-07T04:04:54;100416.16;;;4.06;100.00
54854;BME280;40747;49.480;8.658;2022-12-07T04:07:19;100407.47;;;4.08;100.00
54854;BME280;40747;49.480;8.658;2022-12-07T04:09:45;100411.78;;;4.14;100.00
54854;BME280;40747;49.480;8.658;2022-12-07T04:12:10;100410.03;;;4.18;100.00
54854;BME280;40747;49.480;8.658;2022-12-07T04:14:35;100413.50;;;4.17;100.00
54854;BME280;40747;49.480;8.658;2022-12-07T04:17:01;100414.41;;;4.06;100.00
54854;BME280;40747;49.480;8.658;2022-12-07T04:19:31;100411.81;;;4.08;100.00
54854;BME280;40747;49.480;8.658;2022-12-07T04:21:58;100405.78;;;3.92;100.00
54854;BME280;40747;49.480;8.658;2022-12-07T04:24:25;100407.50;;;3.93;100.00
54854;BME280;40747;49.480;8.658;2022-12-07T04:26:50;100399.69;;;3.91;100.00
54854;BME280;40747;49.480;8.658;2022-12-07T04:29:16;100398.81;;;3.94;100.00
54854;BME280;40747;49.480;8.658;2022-12-07T04:31:42;100397.09;;;3.88;100.00
54854;BME280;40747;49.480;8.658;2022-12-07T04:34:09;100390.16;;;3.80;100.00
54854;BME280;40747;49.480;8.658;2022-12-07T04:36:35;100396.19;;;3.97;100.00
54854;BME280;40747;49.480;8.658;2022-12-07T04:39:01;100391.00;;;3.85;100.00
54854;BME280;40747;49.480;8.658;2022-12-07T04:41:27;100397.09;;;3.81;100.00
54854;BME280;40747;49.480;8.658;2022-12-07T04:43:54;100400.56;;;3.92;100.00
54854;BME280;40747;49.480;8.658;2022-12-07T04:46:20;100405.78;;;3.89;100.00
54854;BME280;40747;49.480;8.658;2022-12-07T04:48:45;100412.72;;;3.90;100.00
54854;BME280;40747;49.480;8.658;2022-12-07T04:51:11;100418.78;;;3.95;100.00
54854;BME280;40747;49.480;8.658;2022-12-07T04:53:36;100417.03;;;4.05;100.00
54854;BME280;40747;49.480;8.658;2022-12-07T04:56:01;100417.94;;;3.94;100.00
54854;BME280;40747;49.480;8.658;2022-12-07T04:58:26;100425.72;;;4.02;100.00
54854;BME280;40747;49.480;8.658;2022-12-07T05:00:54;100422.22;;;4.16;100.00
54854;BME280;40747;49.480;8.658;2022-12-07T05:03:20;100421.34;;;4.17;100.00
54854;BME280;40747;49.480;8.658;2022-12-07T05:05:45;100417.00;;;4.13;100.00
54854;BME280;40747;49.480;8.658;2022-12-07T05:08:10;100410.97;;;4.04;100.00
54854;BME280;40747;49.480;8.658;2022-12-07T05:10:36;100405.75;;;4.01;100.00
54854;BME280;40747;49.480;8.658;2022-12-07T05:13:01;100411.84;;;3.97;100.00
54854;BME280;40747;49.480;8.658;2022-12-07T05:15:26;100408.34;;;3.95;100.00
54854;BME280;40747;49.480;8.658;2022-12-07T05:17:51;100404.91;;;3.91;100.00
54854;BME280;40747;49.480;8.658;2022-12-07T05:20:17;100408.38;;;3.84;100.00
54854;BME280;40747;49.480;8.658;2022-12-07T05:22:42;100406.63;;;3.85;100.00
54854;BME280;40747;49.480;8.658;2022-12-07T05:25:08;100408.38;;;3.86;100.00
54854;BME280;40747;49.480;8.658;2022-12-07T05:27:33;100411.03;;;3.52;100.00
54854;BME280;40747;49.480;8.658;2022-12-07T05:29:58;100404.94;;;3.03;100.00
54854;BME280;40747;49.480;8.658;2022-12-07T05:32:24;100364.03;;;2.46;100.00
54854;BME280;40747;49.480;8.658;2022-12-07T05:34:49;100408.19;;;2.36;100.00
54854;BME280;40747;49.480;8.658;2022-12-07T05:37:14;100398.63;;;2.30;100.00
54854;BME280;40747;49.480;8.658;2022-12-07T05:39:40;100413.31;;;2.20;100.00
54854;BME280;40747;49.480;8.658;2022-12-07T05:42:09;100415.09;;;2.34;100.00
54854;BME280;40747;49.480;8.658;2022-12-07T05:44:39;100416.00;;;2.39;100.00
54854;BME280;40747;49.480;8.658;2022-12-07T05:47:04;100385.59;;;2.19;100.00
54854;BME280;40747;49.480;8.658;2022-12-07T05:49:30;100404.63;;;2.20;100.00
54854;BME280;40747;49.480;8.658;2022-12-07T05:51:55;100402.03;;;2.20;100.00
54854;BME280;40747;49.480;8.658;2022-12-07T05:54:21;100421.09;;;2.16;100.00
54854;BME280;40747;49.480;8.658;2022-12-07T05:56:46;100417.63;;;2.17;100.00
54854;BME280;40747;49.480;8.658;2022-12-07T05:59:11;100415.97;;;2.29;100.00
54854;BME280;40747;49.480;8.658;2022-12-07T06:02:00;100416.75;;;2.10;100.00
54854;BME280;40747;49.480;8.658;2022-12-07T06:04:29;100416.69;;;2.07;100.00
54854;BME280;40747;49.480;8.658;2022-12-07T06:06:55;100421.94;;;2.10;100.00
54854;BME280;40747;49.480;8.658;2022-12-07T06:09:22;100431.53;;;2.19;100.00
54854;BME280;40747;49.480;8.658;2022-12-07T06:11:48;100425.34;;;2.04;100.00
54854;BME280;40747;49.480;8.658;2022-12-07T06:14:32;100415.84;;;2.11;100.00
54854;BME280;40747;49.480;8.658;2022-12-07T06:16:57;100421.91;;;2.04;100.00
54854;BME280;40747;49.480;8.658;2022-12-07T06:19:23;100368.88;;;1.69;100.00
54854;BME280;40747;49.480;8.658;2022-12-07T06:21:48;100419.22;;;1.87;100.00
54854;BME280;40747;49.480;8.658;2022-12-07T06:24:15;100412.22;;;1.84;100.00
54854;BME280;40747;49.480;8.658;2022-12-07T06:26:42;100386.19;;;1.70;100.00
54854;BME280;40747;49.480;8.658;2022-12-07T06:29:07;100415.72;;;1.86;100.00
54854;BME280;40747;49.480;8.658;2022-12-07T06:31:33;100405.28;;;1.75;100.00
54854;BME280;40747;49.480;8.658;2022-12-07T06:34:04;100423.50;;;1.85;100.00
54854;BME280;40747;49.480;8.658;2022-12-07T06:36:30;100431.41;;;1.99;100.00
54854;BME280;40747;49.480;8.658;2022-12-07T06:38:55;100423.72;;;2.25;100.00
54854;BME280;40747;49.480;8.658;2022-12-07T06:41:21;100421.19;;;2.40;100.00
54854;BME280;40747;49.480;8.658;2022-12-07T06:43:46;100418.72;;;2.67;100.00
54854;BME280;40747;49.480;8.658;2022-12-07T06:46:12;100419.59;;;2.72;100.00
54854;BME280;40747;49.480;8.658;2022-12-07T06:48:38;100415.31;;;2.97;100.00
54854;BME280;40747;49.480;8.658;2022-12-07T06:51:03;100412.72;;;3.06;100.00
54854;BME280;40747;49.480;8.658;2022-12-07T06:53:28;100419.66;;;3.04;100.00
54854;BME280;40747;49.480;8.658;2022-12-07T06:55:54;100409.28;;;3.07;100.00
54854;BME280;40747;49.480;8.658;2022-12-07T06:58:19;100412.72;;;3.06;100.00
54854;BME280;40747;49.480;8.658;2022-12-07T07:00:45;100421.44;;;3.27;100.00
54854;BME280;40747;49.480;8.658;2022-12-07T07:03:10;100385.84;;;3.18;100.00
54854;BME280;40747;49.480;8.658;2022-12-07T07:05:35;100425.75;;;3.39;100.00
54854;BME280;40747;49.480;8.658;2022-12-07T07:08:01;100419.69;;;3.17;100.00
54854;BME280;40747;49.480;8.658;2022-12-07T07:10:27;100423.16;;;3.19;100.00
54854;BME280;40747;49.480;8.658;2022-12-07T07:12:53;100422.31;;;3.37;100.00
54854;BME280;40747;49.480;8.658;2022-12-07T07:15:18;100422.31;;;3.38;100.00
54854;BME280;40747;49.480;8.658;2022-12-07T07:17:43;100431.84;;;3.32;100.00
54854;BME280;40747;49.480;8.658;2022-12-07T07:20:09;100423.16;;;3.19;100.00
54854;BME280;40747;49.480;8.658;2022-12-07T07:22:34;100433.59;;;3.30;100.00
54854;BME280;40747;49.480;8.658;2022-12-07T07:25:00;100439.66;;;3.39;100.00
54854;BME280;40747;49.480;8.658;2022-12-07T07:27:25;100430.13;;;3.48;100.00
54854;BME280;40747;49.480;8.658;2022-12-07T07:29:50;100431.00;;;3.56;100.00
54854;BME280;40747;49.480;8.658;2022-12-07T07:32:15;100439.66;;;3.64;100.00
54854;BME280;40747;49.480;8.658;2022-12-07T07:34:41;100437.06;;;3.64;100.00
54854;BME280;40747;49.480;8.658;2022-12-07T07:37:06;100442.28;;;3.81;100.00
54854;BME280;40747;49.480;8.658;2022-12-07T07:39:31;100416.25;;;3.73;100.00
54854;BME280;40747;49.480;8.658;2022-12-07T07:41:57;100434.47;;;3.81;100.00
54854;BME280;40747;49.480;8.658;2022-12-07T07:44:22;100441.41;;;3.76;100.00
54854;BME280;40747;49.480;8.658;2022-12-07T07:46:47;100440.53;;;3.63;100.00
54854;BME280;40747;49.480;8.658;2022-12-07T07:49:13;100437.06;;;3.64;100.00
54854;BME280;40747;49.480;8.658;2022-12-07T07:51:38;100447.47;;;3.76;100.00
54854;BME280;40747;49.480;8.658;2022-12-07T07:54:03;100449.22;;;3.71;100.00
54854;BME280;40747;49.480;8.658;2022-12-07T07:56:29;100445.75;;;3.88;100.00
54854;BME280;40747;49.480;8.658;2022-12-07T07:58:54;100451.78;;;3.96;100.00
54854;BME280;40747;49.480;8.658;2022-12-07T08:01:20;100451.81;;;3.99;100.00
54854;BME280;40747;49.480;8.658;2022-12-07T08:03:48;100437.94;;;3.86;100.00
54854;BME280;40747;49.480;8.658;2022-12-07T08:06:14;100455.28;;;4.00;100.00
54854;BME280;40747;49.480;8.658;2022-12-07T08:08:39;100450.91;;;4.13;100.00
54854;BME280;40747;49.480;8.658;2022-12-07T08:11:09;100452.66;;;4.18;100.00
54854;BME280;40747;49.480;8.658;2022-12-07T08:13:36;100448.28;;;4.23;100.00
54854;BME280;40747;49.480;8.658;2022-12-07T08:16:07;100449.16;;;4.22;100.00
54854;BME280;40747;49.480;8.658;2022-12-07T08:18:38;100452.63;;;4.17;100.00
54854;BME280;40747;49.480;8.658;2022-12-07T08:21:05;100457.00;;;4.15;100.00
54854;BME280;40747;49.480;8.658;2022-12-07T08:23:30;100447.47;;;4.04;100.00
54854;BME280;40747;49.480;8.658;2022-12-07T08:26:04;100452.66;;;4.01;100.00
54854;BME280;40747;49.480;8.658;2022-12-07T08:28:29;100455.28;;;4.04;100.00
54854;BME280;40747;49.480;8.658;2022-12-07T08:30:59;100457.00;;;4.02;100.00
54854;BME280;40747;49.480;8.658;2022-12-07T08:33:24;100454.41;;;3.98;100.00
54854;BME280;40747;49.480;8.658;2022-12-07T08:35:51;100445.75;;;3.94;100.00
54854;BME280;40747;49.480;8.658;2022-12-07T08:38:16;100454.41;;;4.07;100.00
54854;BME280;40747;49.480;8.658;2022-12-07T08:40:41;100454.41;;;3.93;100.00
54854;BME280;40747;49.480;8.658;2022-12-07T08:43:06;100455.28;;;3.98;100.00
54854;BME280;40747;49.480;8.658;2022-12-07T08:45:31;100456.13;;;4.00;100.00
54854;BME280;40747;49.480;8.658;2022-12-07T08:48:04;100458.75;;;3.99;100.00
54854;BME280;40747;49.480;8.658;2022-12-07T08:50:31;100457.03;;;4.05;100.00
54854;BME280;40747;49.480;8.658;2022-12-07T08:52:58;100462.22;;;4.01;100.00
54854;BME280;40747;49.480;8.658;2022-12-07T08:55:24;100450.06;;;3.97;100.00
54854;BME280;40747;49.480;8.658;2022-12-07T08:57:50;100450.94;;;4.02;100.00
54854;BME280;40747;49.480;8.658;2022-12-07T09:00:16;100454.41;;;4.02;100.00
54854;BME280;40747;49.480;8.658;2022-12-07T09:02:44;100456.13;;;4.06;100.00
54854;BME280;40747;49.480;8.658;2022-12-07T09:05:11;100457.00;;;4.07;100.00
54854;BME280;40747;49.480;8.658;2022-12-07T09:07:37;100457.84;;;4.17;100.00
54854;BME280;40747;49.480;8.658;2022-12-07T09:10:04;100463.06;;;4.14;100.00
54854;BME280;40747;49.480;8.658;2022-12-07T09:12:29;100460.47;;;4.20;100.00
54854;BME280;40747;49.480;8.658;2022-12-07T09:14:55;100450.06;;;3.97;100.00
54854;BME280;40747;49.480;8.658;2022-12-07T09:17:20;100455.31;;;3.83;100.00
54854;BME280;40747;49.480;8.658;2022-12-07T09:19:46;100458.75;;;3.97;100.00
54854;BME280;40747;49.480;8.658;2022-12-07T09:22:11;100463.06;;;4.15;100.00
54854;BME280;40747;49.480;8.658;2022-12-07T09:24:36;100457.00;;;4.01;100.00
54854;BME280;40747;49.480;8.658;2022-12-07T09:27:02;100462.22;;;4.08;100.00
54854;BME280;40747;49.480;8.658;2022-12-07T09:29:27;100468.31;;;4.10;100.00
54854;BME280;40747;49.480;8.658;2022-12-07T09:31:52;100463.06;;;4.09;100.00
54854;BME280;40747;49.480;8.658;2022-12-07T09:34:18;100466.56;;;4.06;100.00
54854;BME280;40747;49.480;8.658;2022-12-07T09:36:43;100465.69;;;4.12;100.00
54854;BME280;40747;49.480;8.658;2022-12-07T09:39:09;100452.66;;;3.98;100.00
54854;BME280;40747;49.480;8.658;2022-12-07T09:41:38;100456.97;;;4.21;100.00
54854;BME280;40747;49.480;8.658;2022-12-07T09:44:07;100464.78;;;4.24;100.00
54854;BME280;40747;49.480;8.658;2022-12-07T09:46:39;100463.06;;;4.14;100.00
54854;BME280;40747;49.480;8.658;2022-12-07T09:49:14;100461.28;;;4.34;100.00
54854;BME280;40747;49.480;8.658;2022-12-07T09:51:41;100453.44;;;4.36;100.00
54854;BME280;40747;49.480;8.658;2022-12-07T09:54:08;100456.94;;;4.30;100.00
54854;BME280;40747;49.480;8.658;2022-12-07T09:56:36;100455.19;;;4.41;100.00
54854;BME280;40747;49.480;8.658;2022-12-07T09:59:02;100459.50;;;4.49;100.00
54854;BME280;40747;49.480;8.658;2022-12-07T10:01:30;100453.41;;;4.43;100.00
54854;BME280;40747;49.480;8.658;2022-12-07T10:04:09;100444.75;;;4.41;100.00
54854;BME280;40747;49.480;8.658;2022-12-07T10:06:38;100445.56;;;4.51;100.00
54854;BME280;40747;49.480;8.658;2022-12-07T10:09:10;100446.47;;;4.50;100.00
54854;BME280;40747;49.480;8.658;2022-12-07T10:14:28;100442.09;;;4.57;100.00
54854;BME280;40747;49.480;8.658;2022-12-07T10:16:54;100439.44;;;4.65;100.00
54854;BME280;40747;49.480;8.658;2022-12-07T10:19:31;100442.03;;;4.69;100.00
54854;BME280;40747;49.480;8.658;2022-12-07T10:22:16;100447.19;;;4.82;100.00
54854;BME280;40747;49.480;8.658;2022-12-07T10:24:43;100431.53;;;4.75;100.00
54854;BME280;40747;49.480;8.658;2022-12-07T10:27:25;100431.53;;;4.79;100.00
54854;BME280;40747;49.480;8.658;2022-12-07T10:29:52;100435.03;;;4.78;100.00
54854;BME280;40747;49.480;8.658;2022-12-07T10:34:43;100428.09;;;4.70;100.00
54854;BME280;40747;49.480;8.658;2022-12-07T10:39:52;100427.19;;;4.82;100.00
54854;BME280;40747;49.480;8.658;2022-12-07T10:42:19;100434.91;;;5.01;100.00
54854;BME280;40747;49.480;8.658;2022-12-07T10:44:44;100415.75;;;5.02;100.00
54854;BME280;40747;49.480;8.658;2022-12-07T10:53:01;100415.84;;;4.82;100.00
54854;BME280;40747;49.480;8.658;2022-12-07T11:01:41;100421.03;;;4.91;100.00
54854;BME280;40747;49.480;8.658;2022-12-07T11:07:14;100409.59;;;5.11;100.00
54854;BME280;40747;49.480;8.658;2022-12-07T11:10:08;100403.66;;;4.90;100.00
54854;BME280;40747;49.480;8.658;2022-12-07T11:13:10;100409.69;;;5.01;100.00
54854;BME280;40747;49.480;8.658;2022-12-07T11:18:49;100397.41;;;5.09;100.00
54854;BME280;40747;49.480;8.658;2022-12-07T11:21:28;100397.28;;;5.27;100.00
54854;BME280;40747;49.480;8.658;2022-12-07T11:24:18;100387.78;;;5.18;100.00
54854;BME280;40747;49.480;8.658;2022-12-07T11:32:20;100379.97;;;5.16;100.00
54854;BME280;40747;49.480;8.658;2022-12-07T11:37:33;100378.22;;;5.15;100.00
54854;BME280;40747;49.480;8.658;2022-12-07T11:40:05;100380.00;;;5.12;100.00
54854;BME280;40747;49.480;8.658;2022-12-07T11:42:41;100376.59;;;5.00;100.00
54854;BME280;40747;49.480;8.658;2022-12-07T11:45:20;100369.56;;;5.12;100.00
54854;BME280;40747;49.480;8.658;2022-12-07T11:47:54;100356.44;;;5.19;100.00
54854;BME280;40747;49.480;8.658;2022-12-07T11:50:34;100358.09;;;5.31;100.00
54854;BME280;40747;49.480;8.658;2022-12-07T11:53:09;100351.09;;;5.35;100.00
54854;BME280;40747;49.480;8.658;2022-12-07T11:55:54;100350.06;;;5.53;100.00
54854;BME280;40747;49.480;8.658;2022-12-07T12:03:45;100344.03;;;5.43;100.00
54854;BME280;40747;49.480;8.658;2022-12-07T12:06:11;100344.00;;;5.48;100.00
54854;BME280;40747;49.480;8.658;2022-12-07T12:08:42;100322.25;;;5.49;100.00
54854;BME280;40747;49.480;8.658;2022-12-07T12:14:18;100334.19;;;5.73;100.00
54854;BME280;40747;49.480;8.658;2022-12-07T12:19:30;100334.91;;;5.86;100.00
54854;BME280;40747;49.480;8.658;2022-12-07T12:22:07;100333.06;;;5.97;100.00
54854;BME280;40747;49.480;8.658;2022-12-07T12:24:37;100333.03;;;5.96;100.00
54854;BME280;40747;49.480;8.658;2022-12-07T12:27:08;100326.09;;;5.93;100.00
54854;BME280;40747;49.480;8.658;2022-12-07T12:29:39;100312.44;;;5.69;100.00
54854;BME280;40747;49.480;8.658;2022-12-07T12:32:12;100335.78;;;5.86;100.00
54854;BME280;40747;49.480;8.658;2022-12-07T12:34:42;100323.66;;;5.81;100.00
54854;BME280;40747;49.480;8.658;2022-12-07T12:42:57;100310.59;;;5.81;100.00
54854;BME280;40747;49.480;8.658;2022-12-07T12:45:28;100318.22;;;5.98;100.00
54854;BME280;40747;49.480;8.658;2022-12-07T12:48:01;100314.47;;;6.22;100.00
54854;BME280;40747;49.480;8.658;2022-12-07T12:50:34;100307.44;;;6.27;100.00
54854;BME280;40747;49.480;8.658;2022-12-07T12:53:28;100302.16;;;6.29;100.00
54854;BME280;40747;49.480;8.658;2022-12-07T12:56:09;100308.44;;;6.17;100.00
54854;BME280;40747;49.480;8.658;2022-12-07T12:58:38;100305.75;;;6.23;100.00
54854;BME280;40747;49.480;8.658;2022-12-07T13:01:42;100307.38;;;6.32;100.00
54854;BME280;40747;49.480;8.658;2022-12-07T13:04:27;100297.75;;;6.32;99.58
54854;BME280;40747;49.480;8.658;2022-12-07T13:06:54;100296.00;;;6.34;98.24
54854;BME280;40747;49.480;8.658;2022-12-07T13:09:26;100301.25;;;6.34;97.79
54854;BME280;40747;49.480;8.658;2022-12-07T13:12:00;100301.16;;;6.39;100.00
54854;BME280;40747;49.480;8.658;2022-12-07T13:17:00;100227.66;;;5.92;99.62
54854;BME280;40747;49.480;8.658;2022-12-07T13:22:33;100282.09;;;6.31;98.37
54854;BME280;40747;49.480;8.658;2022-12-07T13:25:19;100277.75;;;6.30;100.00
54854;BME280;40747;49.480;8.658;2022-12-07T13:27:57;100271.66;;;6.29;98.97
54854;BME280;40747;49.480;8.658;2022-12-07T13:30:23;100261.19;;;6.28;100.00
54854;BME280;40747;49.480;8.658;2022-12-07T13:32:54;100269.88;;;6.31;99.63
54854;BME280;40747;49.480;8.658;2022-12-07T13:35:33;100267.16;;;6.37;99.04
54854;BME280;40747;49.480;8.658;2022-12-07T13:38:01;100265.41;;;6.39;98.48
54854;BME280;40747;49.480;8.658;2022-12-07T13:40:27;100268.03;;;6.39;99.00
54854;BME280;40747;49.480;8.658;2022-12-07T13:43:04;100265.28;;;6.46;96.86
54854;BME280;40747;49.480;8.658;2022-12-07T13:45:32;100260.06;;;6.47;97.66
54854;BME280;40747;49.480;8.658;2022-12-07T13:48:28;100260.97;;;6.45;97.98
54854;BME280;40747;49.480;8.658;2022-12-07T13:50:57;100262.00;;;6.34;97.77
54854;BME280;40747;49.480;8.658;2022-12-07T13:53:24;100260.47;;;6.18;97.46
54854;BME280;40747;49.480;8.658;2022-12-07T13:55:49;100256.06;;;6.21;98.70
54854;BME280;40747;49.480;8.658;2022-12-07T13:58:15;100263.69;;;6.37;98.04
54854;BME280;40747;49.480;8.658;2022-12-07T14:00:41;100242.75;;;6.38;98.47
54854;BME280;40747;49.480;8.658;2022-12-07T14:05:40;100243.56;;;6.40;97.00
54854;BME280;40747;49.480;8.658;2022-12-07T14:08:22;100252.88;;;6.60;95.28
54854;BME280;40747;49.480;8.658;2022-12-07T14:13:34;100262.25;;;6.73;94.17
54854;BME280;40747;49.480;8.658;2022-12-07T14:16:02;100256.25;;;6.68;95.56
54854;BME280;40747;49.480;8.658;2022-12-07T14:18:40;100257.22;;;6.63;93.34
54854;BME280;40747;49.480;8.658;2022-12-07T14:23:34;100258.41;;;6.40;94.73